createdAt,value
2019-03-13T00:02:27.247Z,40.60
2019-03-13T00:07:03.036Z,39.70
2019-03-13T00:11:38.890Z,39.30
2019-03-13T00:16:14.765Z,40.30
2019-03-13T00:20:50.540Z,40.80
2019-03-13T00:25:26.291Z,38.90
2019-03-13T00:30:02.059Z,39.10
2019-03-13T00:34:37.801Z,38.80
2019-03-13T00:39:13.576Z,38.80
2019-03-13T00:43:49.320Z,37.20
2019-03-13T00:48:25.101Z,36.90
2019-03-13T00:53:00.878Z,37.30
2019-03-13T00:57:38.338Z,37.30
2019-03-13T01:02:28.289Z,35.80
2019-03-13T01:07:06.612Z,36.90
2019-03-13T01:11:42.401Z,37.20
2019-03-13T01:16:18.178Z,37.20
2019-03-13T01:20:53.950Z,37.20
2019-03-13T01:25:29.746Z,37.00
2019-03-13T01:30:06.425Z,39.20
2019-03-13T01:34:45.478Z,42.40
2019-03-13T01:39:21.221Z,43.60
2019-03-13T01:43:56.988Z,43.30
2019-03-13T01:48:32.749Z,44.80
2019-03-13T01:53:08.513Z,46.10
2019-03-13T01:57:44.324Z,49.40
2019-03-13T02:02:20.117Z,52.70
2019-03-13T02:06:55.865Z,52.70
2019-03-13T02:11:31.642Z,53.40
2019-03-13T02:16:07.421Z,54.70
2019-03-13T02:20:43.185Z,55.10
2019-03-13T02:25:18.949Z,54.70
2019-03-13T02:29:54.721Z,55.40
2019-03-13T02:34:30.503Z,56.50
2019-03-13T02:39:06.828Z,57.10
2019-03-13T02:43:42.647Z,58.30
2019-03-13T02:48:18.506Z,56.70
2019-03-13T02:52:54.250Z,62.40
2019-03-13T02:57:30.017Z,66.80
2019-03-13T03:02:23.105Z,71.00
2019-03-13T03:06:58.872Z,69.80
2019-03-13T03:11:34.621Z,72.20
2019-03-13T03:16:10.409Z,70.10
2019-03-13T03:20:46.164Z,71.10
2019-03-13T03:25:21.928Z,69.00
2019-03-13T03:29:57.682Z,70.30
2019-03-13T03:34:33.460Z,68.70
2019-03-13T03:39:09.217Z,72.00
2019-03-13T03:43:45.221Z,70.00
2019-03-13T03:48:20.977Z,72.10
2019-03-13T03:52:56.742Z,73.80
2019-03-13T03:57:32.554Z,76.10
2019-03-13T04:02:08.322Z,78.00
2019-03-13T04:06:44.251Z,74.70
2019-03-13T04:11:20.028Z,72.60
2019-03-13T04:15:55.777Z,67.80
2019-03-13T04:20:31.579Z,67.30
2019-03-13T04:25:30.237Z,66.50
2019-03-13T04:30:06.410Z,66.80
2019-03-13T04:34:42.170Z,68.60
2019-03-13T04:39:17.942Z,69.50
2019-03-13T04:43:53.694Z,73.50
2019-03-13T04:48:29.481Z,74.80
2019-03-13T04:53:05.229Z,74.50
2019-03-13T04:57:41.067Z,74.20
2019-03-13T05:02:16.861Z,74.00
2019-03-13T05:06:52.625Z,74.90
2019-03-13T05:11:28.382Z,72.30
2019-03-13T05:16:04.332Z,70.10
2019-03-13T05:20:40.168Z,73.00
2019-03-13T05:25:18.966Z,70.20
2019-03-13T05:29:53.382Z,69.70
2019-03-13T05:34:29.157Z,70.40
2019-03-13T05:39:06.605Z,70.50
2019-03-13T05:43:42.368Z,67.40
2019-03-13T05:48:18.116Z,66.50
2019-03-13T05:52:53.894Z,64.70
2019-03-13T05:57:29.730Z,64.10
2019-03-13T06:02:03.977Z,65.10
2019-03-13T06:06:39.745Z,67.20
2019-03-13T06:11:15.582Z,69.10
2019-03-13T06:15:51.402Z,69.00
2019-03-13T06:20:27.168Z,69.30
2019-03-13T06:25:02.953Z,69.70
2019-03-13T06:29:38.789Z,67.40
2019-03-13T06:34:14.538Z,67.30
2019-03-13T06:38:50.342Z,67.70
2019-03-13T06:43:26.128Z,68.70
2019-03-13T06:48:01.902Z,68.70
2019-03-13T06:52:37.728Z,69.30
2019-03-13T06:57:13.488Z,69.30
2019-03-13T07:02:17.249Z,71.30
2019-03-13T07:07:12.021Z,69.90
2019-03-13T07:12:11.268Z,70.60
2019-03-13T07:17:08.763Z,69.10
2019-03-13T07:22:12.309Z,67.10
2019-03-13T07:27:15.937Z,66.60
2019-03-13T07:32:16.454Z,64.20
2019-03-13T07:37:05.833Z,67.20
2019-03-13T07:41:59.145Z,67.40
2019-03-13T07:46:56.292Z,64.90
2019-03-13T07:51:41.777Z,63.00
2019-03-13T07:56:26.498Z,64.20
2019-03-13T08:01:08.382Z,64.30
2019-03-13T08:06:11.949Z,65.10
2019-03-13T08:11:06.636Z,66.20
2019-03-13T08:15:48.145Z,64.40
2019-03-13T08:20:41.461Z,65.50
2019-03-13T08:25:34.760Z,62.50
2019-03-13T08:30:39.117Z,63.40
2019-03-13T08:35:22.549Z,63.70
2019-03-13T08:40:19.011Z,61.50
2019-03-13T08:45:22.859Z,61.10
2019-03-13T08:50:20.360Z,60.40
2019-03-13T08:55:18.101Z,61.00
2019-03-13T09:00:11.101Z,60.60
2019-03-13T09:04:46.645Z,61.40
2019-03-13T09:14:42.124Z,61.30
2019-03-13T09:19:52.111Z,62.10
2019-03-13T09:25:11.134Z,62.10
2019-03-13T09:29:55.366Z,63.70
2019-03-13T09:34:52.879Z,63.90
2019-03-13T09:39:47.924Z,63.90
2019-03-13T09:44:48.495Z,65.50
2019-03-13T09:49:43.185Z,64.60
2019-03-13T09:54:36.105Z,65.30
2019-03-13T09:59:42.603Z,61.70
2019-03-13T10:04:30.117Z,61.80
2019-03-13T10:09:36.048Z,62.10
2019-03-13T10:14:33.761Z,62.60
2019-03-13T10:19:19.379Z,66.60
2019-03-13T10:24:02.030Z,64.40
2019-03-13T10:28:47.738Z,66.60
2019-03-13T10:33:34.963Z,65.00
2019-03-13T10:38:19.988Z,65.00
2019-03-13T10:43:20.572Z,65.70
2019-03-13T10:48:13.240Z,64.60
2019-03-13T10:53:13.764Z,62.80
2019-03-13T10:58:08.521Z,60.00
2019-03-13T11:03:06.048Z,60.50
2019-03-13T11:07:57.933Z,59.00
2019-03-13T11:13:01.801Z,59.50
2019-03-13T11:17:59.525Z,61.00
2019-03-13T11:22:46.593Z,60.50
2019-03-13T11:27:39.695Z,57.40
2019-03-13T11:32:25.163Z,55.90
2019-03-13T11:41:59.429Z,56.20
2019-03-13T11:46:50.190Z,57.20
2019-03-13T11:51:39.768Z,56.40
2019-03-13T11:56:52.422Z,54.50
2019-03-13T12:01:58.938Z,49.40
2019-03-13T12:06:56.184Z,49.10
2019-03-13T12:11:49.576Z,50.10
2019-03-13T12:16:43.012Z,49.50
2019-03-13T12:21:43.862Z,47.60
2019-03-13T12:26:26.330Z,49.30
2019-03-13T12:31:24.234Z,46.90
2019-03-13T12:36:12.326Z,46.80
2019-03-13T12:40:56.681Z,44.50
2019-03-13T12:45:46.294Z,45.30
2019-03-13T12:50:39.646Z,45.70
2019-03-13T12:55:36.914Z,45.70
2019-03-13T13:00:21.243Z,46.40
2019-03-13T13:05:19.004Z,44.50
2019-03-13T13:10:12.320Z,44.80
2019-03-13T13:15:05.502Z,44.80
2019-03-13T13:19:41.357Z,45.30
2019-03-13T13:24:17.112Z,53.90
2019-03-13T13:28:52.905Z,59.00
2019-03-13T13:33:28.644Z,60.30
2019-03-13T13:38:04.433Z,57.70
2019-03-13T13:42:40.249Z,59.00
2019-03-13T13:47:16.144Z,58.20
2019-03-13T13:51:51.905Z,56.40
2019-03-13T13:56:27.669Z,52.80
2019-03-13T14:01:03.421Z,50.30
2019-03-13T14:05:40.851Z,52.60
2019-03-13T14:10:16.626Z,50.50
2019-03-13T14:14:52.413Z,50.00
2019-03-13T14:19:29.270Z,50.60
2019-03-13T14:24:05.120Z,54.90
2019-03-13T14:28:40.865Z,54.10
2019-03-13T14:33:16.669Z,50.90
2019-03-13T14:37:52.412Z,49.90
2019-03-13T14:42:28.184Z,48.10
2019-03-13T14:47:03.930Z,47.60
2019-03-13T14:51:40.016Z,44.00
2019-03-13T14:56:15.773Z,44.10
2019-03-13T15:00:51.564Z,50.50
2019-03-13T15:05:27.341Z,53.00
2019-03-13T15:10:03.161Z,54.40
2019-03-13T15:14:38.924Z,55.40
2019-03-13T15:19:14.684Z,54.90
2019-03-13T15:23:50.453Z,55.50
2019-03-13T15:28:26.225Z,55.80
2019-03-13T15:33:01.967Z,56.10
2019-03-13T15:37:37.736Z,51.40
2019-03-13T15:42:13.565Z,50.90
2019-03-13T15:46:49.333Z,52.80
2019-03-13T15:51:25.099Z,57.40
2019-03-13T15:56:00.891Z,60.20
2019-03-13T16:00:36.744Z,61.90
2019-03-13T16:05:12.612Z,62.30
2019-03-13T16:09:48.361Z,61.30
2019-03-13T16:14:24.129Z,61.20
2019-03-13T16:18:59.876Z,59.30
2019-03-13T16:23:35.648Z,60.90
2019-03-13T16:28:11.387Z,60.60
2019-03-13T16:32:47.198Z,61.80
2019-03-13T16:37:22.945Z,62.50
2019-03-13T16:41:58.729Z,61.00
2019-03-13T16:51:09.188Z,60.90
2019-03-13T16:55:44.929Z,59.60
2019-03-13T17:00:22.399Z,60.50
2019-03-13T17:04:58.148Z,62.30
2019-03-13T17:09:33.931Z,62.60
2019-03-13T17:14:09.713Z,62.40
2019-03-13T17:18:45.476Z,62.70
2019-03-13T17:23:21.256Z,61.90
2019-03-13T17:27:57.072Z,60.10
2019-03-13T17:32:32.892Z,61.30
2019-03-13T17:37:08.648Z,64.60
2019-03-13T17:41:44.388Z,62.70
2019-03-13T17:46:20.164Z,61.60
2019-03-13T17:50:55.963Z,59.50
2019-03-13T17:55:31.756Z,60.40
2019-03-13T18:00:10.845Z,62.20
2019-03-13T18:04:46.647Z,62.20
2019-03-13T18:09:22.387Z,60.40
2019-03-13T18:13:58.180Z,53.30
2019-03-13T18:18:33.943Z,57.00
2019-03-13T18:23:09.792Z,60.50
2019-03-13T18:27:45.533Z,61.90
2019-03-13T18:32:21.304Z,61.60
2019-03-13T18:36:57.129Z,61.40
2019-03-13T18:41:32.908Z,61.00
2019-03-13T18:46:08.685Z,63.80
2019-03-13T18:50:44.460Z,64.20
2019-03-13T18:55:21.156Z,63.80
2019-03-13T18:59:56.929Z,63.10
2019-03-13T19:04:32.708Z,63.90
2019-03-13T19:09:08.622Z,64.70
2019-03-13T19:18:19.474Z,62.60
2019-03-13T19:22:55.276Z,63.70
2019-03-13T19:27:31.135Z,65.10
2019-03-13T19:32:06.885Z,63.90
2019-03-13T19:36:42.921Z,64.60
2019-03-13T19:41:18.665Z,65.80
2019-03-13T19:45:54.503Z,65.50
2019-03-13T19:50:30.433Z,66.10
2019-03-13T19:55:07.181Z,65.70
2019-03-13T19:59:42.952Z,65.70
2019-03-13T20:04:18.749Z,64.70
2019-03-13T20:08:54.494Z,64.60
2019-03-13T20:13:30.285Z,66.60
2019-03-13T20:18:06.356Z,67.30
2019-03-13T20:22:42.133Z,67.50
2019-03-13T20:27:17.972Z,68.60
2019-03-13T20:31:53.865Z,69.00
2019-03-13T20:36:29.667Z,69.00
2019-03-13T20:41:05.709Z,69.40
2019-03-13T20:45:41.563Z,71.30
2019-03-13T20:50:17.353Z,71.20
2019-03-13T20:54:53.119Z,73.90
2019-03-13T20:59:28.883Z,72.30
2019-03-13T21:04:07.385Z,72.60
2019-03-13T21:08:42.156Z,74.40
2019-03-13T21:13:17.909Z,76.00
2019-03-13T21:17:53.704Z,77.60
2019-03-13T21:22:29.462Z,78.60
2019-03-13T21:27:05.258Z,81.00
2019-03-13T21:31:41.012Z,81.90
2019-03-13T21:36:16.779Z,82.10
2019-03-13T21:40:52.539Z,82.10
2019-03-13T21:45:40.328Z,83.20
2019-03-13T21:50:06.441Z,84.60
2019-03-13T21:54:42.233Z,84.70
2019-03-13T21:59:17.979Z,84.10
2019-03-13T22:03:53.732Z,85.20
2019-03-13T22:08:29.493Z,85.70
2019-03-13T22:13:05.328Z,86.30
2019-03-13T22:17:41.100Z,88.00
2019-03-13T22:22:16.956Z,87.30
2019-03-13T22:26:52.798Z,87.60
2019-03-13T22:31:28.571Z,88.60
2019-03-13T22:36:04.376Z,86.60
2019-03-13T22:40:40.141Z,87.50
2019-03-13T22:45:16.017Z,88.20
2019-03-13T22:49:51.792Z,88.20
2019-03-13T22:54:27.537Z,89.40
2019-03-13T22:59:03.349Z,87.30
2019-03-13T23:03:40.550Z,86.20
2019-03-13T23:08:16.629Z,86.20
2019-03-13T23:12:52.373Z,87.80
2019-03-13T23:17:28.164Z,87.40
2019-03-13T23:22:03.961Z,87.60
2019-03-13T23:26:39.784Z,90.00
2019-03-13T23:31:15.530Z,88.90
2019-03-13T23:35:51.288Z,87.40
2019-03-13T23:40:27.045Z,89.00
2019-03-13T23:45:02.897Z,88.80
2019-03-13T23:49:38.646Z,88.30
2019-03-13T23:54:14.438Z,88.20
2019-03-13T23:58:50.193Z,88.30
